PWSweather.com
Personal Weather Stations
Station Observations
KJ4AJP
Beautiful Downtown Gardner, Martin, TN 38237

Beautiful Downtown GardnerMartin, TN 38237

Lat: 36.358, Lon: -88.8994

Elevation: 384.3

Station Type: TP1080WC

http://weather.mambm.com/

Latest ConditionsUpdated 6:45:00 PM CDT Monday, Oct 21, 2019
Currently Today's Max Today's Min Today's Average
Temperature 64.0°F17.8°C 81.5°F27.5°C 52.0°F11.1°C 65.9°F18.8°C
Dew Point 63.8°F17.7°C 81.3°F27.4°C 51.7°F10.9°C 65.6°F18.7°C
Winds 1.6 mph S2.6 kmh S 9.2 mph -14.8 kmh - - 3.9 mph 6.3 kmh
Wind Gusts 6.0 mph9.7 kmh 19.7 mph31.7 kmh - -
Humidity 99% 99% 96% 99%
Pressure 29.73 in1006.8 mb 29.76 in1007.8 mb 29.61 in1002.7 mb -
Precipitation - 0.48 in12.2 mm - -
Hour Temp Dew Point Humidity Winds Wind Gusts Pressure Precip Precip Rate Daily Precip Total
06:45 PM 64.0°F17.8°C 63.8°F17.7°C 99% 1.6 mph S2.6 kmh S 6.0 mph9.7 kmh 29.73 in1006.8 mb 0.00 in0.0 mm 0.00 in0.0 mm 0.48 in12.2 mm
06:30 PM 64.6°F18.1°C 64.3°F17.9°C 99% 2.2 mph S3.5 kmh S 7.6 mph12.2 kmh 29.73 in1006.8 mb 0.00 in0.0 mm 0.00 in0.0 mm 0.48 in12.2 mm
06:15 PM 64.9°F18.3°C 64.7°F18.2°C 99% 3.1 mph SW5.0 kmh SW 9.8 mph15.8 kmh 29.73 in1006.8 mb 0.00 in0.0 mm 0.00 in0.0 mm 0.48 in12.2 mm
06:00 PM 65.3°F18.5°C 65.0°F18.3°C 99% 2.2 mph S3.5 kmh S 10.7 mph17.2 kmh 29.73 in1006.8 mb 0.00 in0.0 mm 0.00 in0.0 mm 0.48 in12.2 mm
05:45 PM 65.7°F18.7°C 65.4°F18.6°C 99% 4.5 mph SW7.2 kmh SW 11.4 mph18.3 kmh 29.72 in1006.4 mb 0.00 in0.0 mm 0.00 in0.0 mm 0.48 in12.2 mm
05:30 PM 66.0°F18.9°C 65.8°F18.8°C 99% 2.2 mph SSW3.5 kmh SSW 13.0 mph20.9 kmh 29.71 in1006.1 mb 0.00 in0.0 mm 0.00 in0.0 mm 0.48 in12.2 mm
05:15 PM 65.8°F18.8°C 65.6°F18.7°C 99% 1.6 mph SSW2.6 kmh SSW 13.0 mph20.9 kmh 29.71 in1006.1 mb 0.00 in0.0 mm 0.00 in0.0 mm 0.48 in12.2 mm
05:00 PM 66.0°F18.9°C 65.8°F18.8°C 99% 2.2 mph SSE3.5 kmh SSE 13.0 mph20.9 kmh 29.70 in1005.8 mb 0.00 in0.0 mm 0.00 in0.0 mm 0.48 in12.2 mm
04:45 PM 66.2°F19.0°C 65.9°F18.8°C 99% 3.8 mph SW6.1 kmh SW 14.5 mph23.3 kmh 29.70 in1005.8 mb 0.00 in0.0 mm 0.00 in0.0 mm 0.48 in12.2 mm
04:30 PM 66.6°F19.2°C 66.3°F19.1°C 99% 4.5 mph SW7.2 kmh SW 13.0 mph20.9 kmh 29.71 in1006.1 mb 0.00 in0.0 mm 0.00 in0.0 mm 0.48 in12.2 mm
04:15 PM 66.9°F19.4°C 66.7°F19.3°C 99% 3.8 mph S6.1 kmh S 12.1 mph19.5 kmh 29.70 in1005.8 mb 0.00 in0.0 mm 0.00 in0.0 mm 0.48 in12.2 mm
04:00 PM 66.6°F19.2°C 66.3°F19.1°C 99% 5.4 mph SSW8.7 kmh SSW 12.1 mph19.5 kmh 29.71 in1006.1 mb 0.00 in0.0 mm 0.00 in0.0 mm 0.48 in12.2 mm
03:45 PM 65.8°F18.8°C 65.6°F18.7°C 99% 2.2 mph SSW3.5 kmh SSW 12.1 mph19.5 kmh 29.71 in1006.1 mb 0.00 in0.0 mm 0.00 in0.0 mm 0.48 in12.2 mm
03:30 PM 65.7°F18.7°C 65.4°F18.6°C 99% 5.4 mph S8.7 kmh S 13.6 mph21.9 kmh 29.71 in1006.1 mb 0.00 in0.0 mm 0.00 in0.0 mm 0.48 in12.2 mm
03:15 PM 65.8°F18.8°C 65.6°F18.7°C 99% 7.6 mph S12.2 kmh S 17.4 mph28.0 kmh 29.70 in1005.8 mb 0.00 in0.0 mm 0.00 in0.0 mm 0.48 in12.2 mm
03:00 PM 65.8°F18.8°C 65.6°F18.7°C 99% 5.4 mph SSW8.7 kmh SSW 15.2 mph24.5 kmh 29.69 in1005.4 mb 0.00 in0.0 mm 0.00 in0.0 mm 0.48 in12.2 mm
02:45 PM 66.0°F18.9°C 65.8°F18.8°C 99% 6.0 mph SSW9.7 kmh SSW 12.1 mph19.5 kmh 29.69 in1005.4 mb 0.00 in0.0 mm 0.00 in0.0 mm 0.48 in12.2 mm
02:30 PM 66.0°F18.9°C 65.8°F18.8°C 99% 3.8 mph S6.1 kmh S 13.0 mph20.9 kmh 29.69 in1005.4 mb 0.00 in0.0 mm 0.00 in0.0 mm 0.48 in12.2 mm
02:15 PM 66.0°F18.9°C 65.8°F18.8°C 99% 4.5 mph S7.2 kmh S 11.4 mph18.3 kmh 29.69 in1005.4 mb 0.00 in0.0 mm 0.00 in0.0 mm 0.48 in12.2 mm
02:00 PM 66.0°F18.9°C 65.8°F18.8°C 99% 3.8 mph S6.1 kmh S 13.6 mph21.9 kmh 29.68 in1005.1 mb 0.00 in0.0 mm 0.00 in0.0 mm 0.48 in12.2 mm
01:45 PM 65.7°F18.7°C 65.4°F18.6°C 99% 3.1 mph S5.0 kmh S 10.7 mph17.2 kmh 29.68 in1005.1 mb 0.00 in0.0 mm 0.00 in0.0 mm 0.48 in12.2 mm
01:30 PM 65.1°F18.4°C 64.9°F18.3°C 99% 3.8 mph SW6.1 kmh SW 14.5 mph23.3 kmh 29.69 in1005.4 mb 0.01 in0.3 mm 0.00 in0.0 mm 0.48 in12.2 mm
01:15 PM 64.6°F18.1°C 64.3°F17.9°C 99% 9.2 mph SSW14.8 kmh SSW 18.3 mph29.5 kmh 29.68 in1005.1 mb 0.01 in0.3 mm 0.00 in0.0 mm 0.48 in12.2 mm
01:00 PM 64.4°F18.0°C 64.1°F17.8°C 99% 5.4 mph S8.7 kmh S 19.0 mph30.6 kmh 29.64 in1003.7 mb 0.02 in0.5 mm 0.00 in0.0 mm 0.48 in12.2 mm
12:45 PM 55.0°F12.8°C 54.8°F12.7°C 99% 6.0 mph SE9.7 kmh SE 14.5 mph23.3 kmh 29.64 in1003.7 mb 0.02 in0.5 mm 0.04 in1.0 mm 0.48 in12.2 mm
12:30 PM 64.8°F18.2°C 64.5°F18.1°C 99% 5.4 mph S8.7 kmh S 19.7 mph31.7 kmh 29.69 in1005.4 mb 0.01 in0.3 mm 0.00 in0.0 mm 0.47 in11.9 mm
12:15 PM 81.5°F27.5°C 81.3°F27.4°C 99% 6.9 mph SE11.1 kmh SE 19.7 mph31.7 kmh 29.71 in1006.1 mb 0.01 in0.3 mm 0.04 in1.0 mm 0.47 in11.9 mm
12:00 PM 59.9°F15.5°C 59.6°F15.3°C 99% 3.8 mph S6.1 kmh S 16.8 mph27.0 kmh 29.71 in1006.1 mb 0.00 in0.0 mm 0.00 in0.0 mm 0.46 in11.7 mm
11:45 AM 64.8°F18.2°C 64.5°F18.1°C 99% 3.8 mph S6.1 kmh S 15.2 mph24.5 kmh 29.70 in1005.8 mb 0.01 in0.3 mm 0.00 in0.0 mm 0.46 in11.7 mm
11:30 AM 64.9°F18.3°C 64.7°F18.2°C 99% 5.4 mph SE8.7 kmh SE 13.6 mph21.9 kmh 29.67 in1004.7 mb 0.01 in0.3 mm 0.00 in0.0 mm 0.46 in11.7 mm
11:15 AM 65.1°F18.4°C 64.9°F18.3°C 99% 4.5 mph SSE7.2 kmh SSE 18.3 mph29.5 kmh 29.69 in1005.4 mb 0.02 in0.5 mm 0.00 in0.0 mm 0.46 in11.7 mm
11:00 AM 71.6°F22.0°C 71.3°F21.8°C 99% 7.6 mph SSE12.2 kmh SSE 15.2 mph24.5 kmh 29.66 in1004.4 mb 0.02 in0.5 mm 0.01 in0.3 mm 0.46 in11.7 mm
10:45 AM 65.8°F18.8°C 65.6°F18.7°C 99% 5.4 mph SSE8.7 kmh SSE 13.6 mph21.9 kmh 29.68 in1005.1 mb 0.01 in0.3 mm 0.00 in0.0 mm 0.45 in11.4 mm
10:30 AM 66.2°F19.0°C 65.9°F18.8°C 99% 3.8 mph SE6.1 kmh SE 17.4 mph28.0 kmh 29.69 in1005.4 mb 0.01 in0.3 mm 0.04 in1.0 mm 0.45 in11.4 mm
10:15 AM 66.6°F19.2°C 66.3°F19.1°C 99% 5.4 mph SSE8.7 kmh SSE 15.2 mph24.5 kmh 29.72 in1006.4 mb 0.00 in0.0 mm 0.00 in0.0 mm 0.44 in11.2 mm
10:00 AM 66.4°F19.1°C 66.1°F18.9°C 99% 2.2 mph SSW3.5 kmh SSW 15.2 mph24.5 kmh 29.70 in1005.8 mb 0.00 in0.0 mm 0.00 in0.0 mm 0.44 in11.2 mm
09:45 AM 66.9°F19.4°C 66.7°F19.3°C 99% 4.5 mph S7.2 kmh S 12.1 mph19.5 kmh 29.68 in1005.1 mb 0.00 in0.0 mm 0.00 in0.0 mm 0.44 in11.2 mm
09:30 AM 68.9°F20.5°C 68.6°F20.3°C 99% 6.0 mph S9.7 kmh S 12.1 mph19.5 kmh 29.67 in1004.7 mb 0.00 in0.0 mm 0.00 in0.0 mm 0.44 in11.2 mm
09:15 AM 65.7°F18.7°C 65.4°F18.6°C 99% 4.5 mph S7.2 kmh S 8.3 mph13.4 kmh 29.68 in1005.1 mb 0.02 in0.5 mm 0.00 in0.0 mm 0.44 in11.2 mm
09:00 AM 65.1°F18.4°C 64.9°F18.3°C 99% 1.6 mph S2.6 kmh S 4.5 mph7.2 kmh 29.69 in1005.4 mb 0.06 in1.5 mm 0.00 in0.0 mm 0.44 in11.2 mm
08:45 AM 64.8°F18.2°C 64.5°F18.1°C 99% 0.7 mph S1.1 kmh S 3.1 mph5.0 kmh 29.69 in1005.4 mb 0.39 in9.9 mm 0.04 in1.0 mm 0.44 in11.2 mm
08:30 AM 64.6°F18.1°C 64.3°F17.9°C 99% 0.7 mph S1.1 kmh S 5.4 mph8.7 kmh 29.69 in1005.4 mb 0.38 in9.7 mm 0.04 in1.0 mm 0.43 in10.9 mm
08:15 AM 64.6°F18.1°C 64.3°F17.9°C 99% Calm Calm 11.4 mph18.3 kmh 29.70 in1005.8 mb 0.37 in9.4 mm 0.12 in3.0 mm 0.41 in10.4 mm
08:00 AM 65.5°F18.6°C 65.2°F18.4°C 99% 4.5 mph SW7.2 kmh SW 17.4 mph28.0 kmh 29.70 in1005.8 mb 0.34 in8.6 mm 0.43 in10.9 mm 0.38 in9.7 mm
07:45 AM 68.2°F20.1°C 67.9°F19.9°C 99% 8.3 mph S13.4 kmh S 11.4 mph18.3 kmh 29.68 in1005.1 mb 0.02 in0.5 mm 0.00 in0.0 mm 0.05 in1.3 mm
07:30 AM 68.4°F20.2°C 68.1°F20.1°C 99% 3.8 mph SE6.1 kmh SE 9.2 mph14.8 kmh 29.64 in1003.7 mb 0.02 in0.5 mm 0.00 in0.0 mm 0.05 in1.3 mm
07:15 AM 68.7°F20.4°C 68.5°F20.3°C 99% 4.5 mph S7.2 kmh S 9.8 mph15.8 kmh 29.64 in1003.7 mb 0.02 in0.5 mm 0.04 in1.0 mm 0.05 in1.3 mm
07:00 AM 52.0°F11.1°C 51.7°F10.9°C 99% 2.2 mph S3.5 kmh S 14.5 mph23.3 kmh 29.64 in1003.7 mb 0.01 in0.3 mm 0.00 in0.0 mm 0.04 in1.0 mm
06:45 AM 68.9°F20.5°C 68.6°F20.3°C 99% 5.4 mph SSE8.7 kmh SSE 12.1 mph19.5 kmh 29.63 in1003.4 mb 0.02 in0.5 mm 0.00 in0.0 mm 0.02 in0.5 mm
06:30 AM 69.1°F20.6°C 68.8°F20.4°C 99% 3.1 mph SSE5.0 kmh SSE 10.7 mph17.2 kmh 29.64 in1003.7 mb 0.02 in0.5 mm 0.00 in0.0 mm 0.02 in0.5 mm
06:15 AM 69.3°F20.7°C 69.0°F20.6°C 99% 4.5 mph SSE7.2 kmh SSE 12.1 mph19.5 kmh 29.66 in1004.4 mb 0.02 in0.5 mm 0.00 in0.0 mm 0.02 in0.5 mm
06:00 AM 69.6°F20.9°C 69.4°F20.8°C 99% 5.4 mph SE8.7 kmh SE 18.3 mph29.5 kmh 29.63 in1003.4 mb 0.02 in0.5 mm 0.03 in0.8 mm 0.02 in0.5 mm
05:45 AM 69.4°F20.8°C 69.2°F20.7°C 99% 7.6 mph SE12.2 kmh SE 14.5 mph23.3 kmh 29.65 in1004.1 mb 0.00 in0.0 mm 0.00 in0.0 mm 0.00 in0.0 mm
05:30 AM 69.1°F20.6°C 68.8°F20.4°C 99% 8.3 mph S13.4 kmh S 15.9 mph25.6 kmh 29.63 in1003.4 mb 0.00 in0.0 mm 0.00 in0.0 mm 0.00 in0.0 mm
05:15 AM 68.5°F20.3°C 68.3°F20.2°C 99% 3.8 mph S6.1 kmh S 14.5 mph23.3 kmh 29.63 in1003.4 mb 0.00 in0.0 mm 0.00 in0.0 mm 0.00 in0.0 mm
05:00 AM 68.0°F20.0°C 67.7°F19.8°C 99% 5.4 mph S8.7 kmh S 15.9 mph25.6 kmh 29.61 in1002.7 mb 0.00 in0.0 mm 0.00 in0.0 mm 0.00 in0.0 mm
04:45 AM 73.0°F22.8°C 72.8°F22.7°C 99% 4.5 mph SSE7.2 kmh SSE 14.5 mph23.3 kmh 29.63 in1003.4 mb 0.00 in0.0 mm 0.00 in0.0 mm 0.00 in0.0 mm
04:30 AM 67.5°F19.7°C 67.2°F19.6°C 99% 3.1 mph SE5.0 kmh SE 11.4 mph18.3 kmh 29.64 in1003.7 mb 0.00 in0.0 mm 0.00 in0.0 mm 0.00 in0.0 mm
04:15 AM 66.9°F19.4°C 66.7°F19.3°C 99% 3.8 mph S6.1 kmh S 12.1 mph19.5 kmh 29.64 in1003.7 mb 0.00 in0.0 mm 0.00 in0.0 mm 0.00 in0.0 mm
04:00 AM 66.4°F19.1°C 66.1°F18.9°C 99% 4.5 mph SSW7.2 kmh SSW 13.6 mph21.9 kmh 29.64 in1003.7 mb 0.00 in0.0 mm 0.00 in0.0 mm 0.00 in0.0 mm
03:45 AM 54.5°F12.5°C 54.2°F12.3°C 99% 3.1 mph SSE5.0 kmh SSE 10.7 mph17.2 kmh 29.65 in1004.1 mb 0.00 in0.0 mm 0.00 in0.0 mm 0.00 in0.0 mm
03:30 AM 65.7°F18.7°C 65.4°F18.6°C 99% 2.2 mph SSE3.5 kmh SSE 9.2 mph14.8 kmh 29.66 in1004.4 mb 0.00 in0.0 mm 0.00 in0.0 mm 0.00 in0.0 mm
03:15 AM 65.8°F18.8°C 65.6°F18.7°C 99% 0.7 mph SSE1.1 kmh SSE 9.2 mph14.8 kmh 29.67 in1004.7 mb 0.00 in0.0 mm 0.00 in0.0 mm 0.00 in0.0 mm
03:00 AM 66.0°F18.9°C 65.8°F18.8°C 99% 3.1 mph ESE5.0 kmh ESE 8.3 mph13.4 kmh 29.68 in1005.1 mb 0.00 in0.0 mm 0.00 in0.0 mm 0.00 in0.0 mm
02:45 AM 66.4°F19.1°C 65.8°F18.8°C 98% 2.2 mph SE3.5 kmh SE 9.2 mph14.8 kmh 29.68 in1005.1 mb 0.00 in0.0 mm 0.00 in0.0 mm 0.00 in0.0 mm
02:30 AM 66.7°F19.3°C 65.9°F18.8°C 97% 2.2 mph SE3.5 kmh SE 8.3 mph13.4 kmh 29.70 in1005.8 mb 0.00 in0.0 mm 0.00 in0.0 mm 0.00 in0.0 mm
02:15 AM 66.9°F19.4°C 66.1°F18.9°C 97% 0.7 mph ESE1.1 kmh ESE 9.2 mph14.8 kmh 29.70 in1005.8 mb 0.00 in0.0 mm 0.00 in0.0 mm 0.00 in0.0 mm
02:00 AM 66.7°F19.3°C 65.9°F18.8°C 97% 3.8 mph SE6.1 kmh SE 13.0 mph20.9 kmh 29.69 in1005.4 mb 0.00 in0.0 mm 0.00 in0.0 mm 0.00 in0.0 mm
01:45 AM 66.4°F19.1°C 65.5°F18.6°C 97% 0.7 mph ESE1.1 kmh ESE 9.8 mph15.8 kmh 29.72 in1006.4 mb 0.00 in0.0 mm 0.00 in0.0 mm 0.00 in0.0 mm
01:30 AM 66.0°F18.9°C 65.2°F18.4°C 97% 2.2 mph SE3.5 kmh SE 8.3 mph13.4 kmh 29.71 in1006.1 mb 0.00 in0.0 mm 0.00 in0.0 mm 0.00 in0.0 mm
01:15 AM 66.0°F18.9°C 64.9°F18.3°C 96% 3.1 mph ESE5.0 kmh ESE 8.3 mph13.4 kmh 29.71 in1006.1 mb 0.00 in0.0 mm 0.00 in0.0 mm 0.00 in0.0 mm
01:00 AM 66.0°F18.9°C 64.9°F18.3°C 96% 2.2 mph ESE3.5 kmh ESE 13.0 mph20.9 kmh 29.71 in1006.1 mb 0.00 in0.0 mm 0.00 in0.0 mm 0.00 in0.0 mm
12:45 AM 66.0°F18.9°C 64.9°F18.3°C 96% 4.5 mph E7.2 kmh E 7.6 mph12.2 kmh 29.72 in1006.4 mb 0.00 in0.0 mm 0.00 in0.0 mm 0.00 in0.0 mm
12:30 AM 53.1°F11.7°C 52.0°F11.1°C 96% 3.1 mph SE5.0 kmh SE 10.7 mph17.2 kmh 29.73 in1006.8 mb 0.00 in0.0 mm 0.00 in0.0 mm 0.00 in0.0 mm
12:15 AM 66.2°F19.0°C 65.1°F18.4°C 96% 4.5 mph ESE7.2 kmh ESE 13.0 mph20.9 kmh 29.75 in1007.5 mb 0.00 in0.0 mm 0.00 in0.0 mm 0.00 in0.0 mm
12:00 AM 65.8°F18.8°C 64.7°F18.2°C 96% 2.2 mph ESE3.5 kmh ESE 10.7 mph17.2 kmh 29.76 in1007.8 mb 0.00 in0.0 mm 0.00 in0.0 mm 0.00 in0.0 mm